sensor_id;sensor_type;location;lat;lon;timestamp;pressure;altitude;pressure_sealevel;temperature;humidity
77823;BME280;67013;49.730;17.292;2023-06-22T00:01:37;98653.77;;;20.73;69.33
77823;BME280;67013;49.730;17.292;2023-06-22T00:04:06;98656.48;;;20.72;69.56
77823;BME280;67013;49.730;17.292;2023-06-22T00:06:36;98651.85;;;20.71;69.49
77823;BME280;67013;49.730;17.292;2023-06-22T00:09:05;98659.84;;;20.69;69.51
77823;BME280;67013;49.730;17.292;2023-06-22T00:11:36;98664.48;;;20.66;69.48
77823;BME280;67013;49.730;17.292;2023-06-22T00:14:05;98669.14;;;20.62;69.62
77823;BME280;67013;49.730;17.292;2023-06-22T00:16:35;98672.52;;;20.60;69.66
77823;BME280;67013;49.730;17.292;2023-06-22T00:19:05;98674.48;;;20.60;69.57
77823;BME280;67013;49.730;17.292;2023-06-22T00:21:34;98675.36;;;20.60;69.71
77823;BME280;67013;49.730;17.292;2023-06-22T00:24:06;98677.05;;;20.57;69.66
77823;BME280;67013;49.730;17.292;2023-06-22T00:26:35;98676.34;;;20.51;69.72
77823;BME280;67013;49.730;17.292;2023-06-22T00:29:05;98671.52;;;20.44;69.73
77823;BME280;67013;49.730;17.292;2023-06-22T00:31:34;98661.48;;;20.35;69.98
77823;BME280;67013;49.730;17.292;2023-06-22T00:34:04;98659.86;;;20.25;70.27
77823;BME280;67013;49.730;17.292;2023-06-22T00:36:37;98660.42;;;20.19;70.45
77823;BME280;67013;49.730;17.292;2023-06-22T00:39:08;98658.14;;;20.14;70.55
77823;BME280;67013;49.730;17.292;2023-06-22T00:41:39;98654.13;;;20.10;70.71
77823;BME280;67013;49.730;17.292;2023-06-22T00:44:08;98651.66;;;20.08;70.81
77823;BME280;67013;49.730;17.292;2023-06-22T00:46:38;98647.00;;;20.06;70.96
77823;BME280;67013;49.730;17.292;2023-06-22T00:49:07;98648.44;;;20.02;71.10
77823;BME280;67013;49.730;17.292;2023-06-22T00:51:37;98649.63;;;19.99;71.17
77823;BME280;67013;49.730;17.292;2023-06-22T00:54:15;98647.47;;;19.96;71.20
77823;BME280;67013;49.730;17.292;2023-06-22T00:56:54;98648.52;;;19.95;71.21
77823;BME280;67013;49.730;17.292;2023-06-22T00:59:27;98646.80;;;19.93;71.20
77823;BME280;67013;49.730;17.292;2023-06-22T01:01:57;98644.01;;;19.89;71.23
77823;BME280;67013;49.730;17.292;2023-06-22T01:07:10;98648.68;;;19.85;71.42
77823;BME280;67013;49.730;17.292;2023-06-22T01:09:49;98643.89;;;19.86;71.44
77823;BME280;67013;49.730;17.292;2023-06-22T01:12:23;98640.45;;;19.86;71.36
77823;BME280;67013;49.730;17.292;2023-06-22T01:15:00;98645.32;;;19.87;71.39
77823;BME280;67013;49.730;17.292;2023-06-22T01:17:32;98649.58;;;19.88;71.26
77823;BME280;67013;49.730;17.292;2023-06-22T01:20:04;98652.71;;;19.89;71.30
77823;BME280;67013;49.730;17.292;2023-06-22T01:22:43;98659.11;;;19.88;71.28
77823;BME280;67013;49.730;17.292;2023-06-22T01:25:25;98662.42;;;19.87;71.28
77823;BME280;67013;49.730;17.292;2023-06-22T01:28:02;98659.64;;;19.89;71.25
77823;BME280;67013;49.730;17.292;2023-06-22T01:30:33;98657.21;;;19.91;71.20
77823;BME280;67013;49.730;17.292;2023-06-22T01:33:06;98658.38;;;19.95;71.06
77823;BME280;67013;49.730;17.292;2023-06-22T01:35:36;98657.87;;;20.00;71.03
77823;BME280;67013;49.730;17.292;2023-06-22T01:38:06;98662.88;;;20.03;70.87
77823;BME280;67013;49.730;17.292;2023-06-22T01:40:38;98670.96;;;20.04;70.80
77823;BME280;67013;49.730;17.292;2023-06-22T01:43:08;98677.35;;;20.06;70.69
77823;BME280;67013;49.730;17.292;2023-06-22T01:45:38;98667.65;;;20.05;70.66
77823;BME280;67013;49.730;17.292;2023-06-22T01:48:08;98671.44;;;20.02;70.75
77823;BME280;67013;49.730;17.292;2023-06-22T01:50:38;98677.19;;;19.96;70.68
77823;BME280;67013;49.730;17.292;2023-06-22T01:53:07;98675.48;;;19.92;70.73
77823;BME280;67013;49.730;17.292;2023-06-22T01:55:37;98674.47;;;19.88;70.71
77823;BME280;67013;49.730;17.292;2023-06-22T01:58:06;98679.04;;;19.87;70.72
77823;BME280;67013;49.730;17.292;2023-06-22T02:00:38;98677.55;;;19.86;70.76
77823;BME280;67013;49.730;17.292;2023-06-22T02:03:13;98675.13;;;19.86;70.77
77823;BME280;67013;49.730;17.292;2023-06-22T02:05:49;98672.81;;;19.84;70.75
77823;BME280;67013;49.730;17.292;2023-06-22T02:08:22;98665.34;;;19.80;70.66
77823;BME280;67013;49.730;17.292;2023-06-22T02:10:53;98665.87;;;19.78;70.73
77823;BME280;67013;49.730;17.292;2023-06-22T02:13:25;98666.42;;;19.78;70.77
77823;BME280;67013;49.730;17.292;2023-06-22T02:15:55;98665.94;;;19.79;70.83
77823;BME280;67013;49.730;17.292;2023-06-22T02:18:25;98663.35;;;19.79;70.76
77823;BME280;67013;49.730;17.292;2023-06-22T02:20:55;98659.45;;;19.77;70.73
77823;BME280;67013;49.730;17.292;2023-06-22T02:23:24;98660.34;;;19.75;70.67
77823;BME280;67013;49.730;17.292;2023-06-22T02:25:54;98662.56;;;19.73;70.60
77823;BME280;67013;49.730;17.292;2023-06-22T02:28:23;98663.28;;;19.69;70.73
77823;BME280;67013;49.730;17.292;2023-06-22T02:30:53;98662.11;;;19.67;70.80
77823;BME280;67013;49.730;17.292;2023-06-22T02:33:22;98657.23;;;19.64;70.74
77823;BME280;67013;49.730;17.292;2023-06-22T02:35:53;98653.52;;;19.61;70.79
77823;BME280;67013;49.730;17.292;2023-06-22T02:38:22;98649.25;;;19.58;70.80
77823;BME280;67013;49.730;17.292;2023-06-22T02:40:52;98643.38;;;19.56;71.05
77823;BME280;67013;49.730;17.292;2023-06-22T02:43:22;98637.50;;;19.53;71.06
77823;BME280;67013;49.730;17.292;2023-06-22T02:45:51;98627.20;;;19.50;70.96
77823;BME280;67013;49.730;17.292;2023-06-22T02:48:21;98622.31;;;19.48;70.95
77823;BME280;67013;49.730;17.292;2023-06-22T02:50:50;98619.55;;;19.45;71.03
77823;BME280;67013;49.730;17.292;2023-06-22T02:53:20;98615.10;;;19.43;71.04
77823;BME280;67013;49.730;17.292;2023-06-22T02:55:49;98620.16;;;19.41;71.10
77823;BME280;67013;49.730;17.292;2023-06-22T02:58:19;98621.58;;;19.41;71.07
77823;BME280;67013;49.730;17.292;2023-06-22T03:00:49;98620.06;;;19.44;71.04
77823;BME280;67013;49.730;17.292;2023-06-22T03:03:21;98622.84;;;19.48;71.01
77823;BME280;67013;49.730;17.292;2023-06-22T03:05:50;98628.02;;;19.51;70.99
77823;BME280;67013;49.730;17.292;2023-06-22T03:08:21;98623.44;;;19.51;70.88
77823;BME280;67013;49.730;17.292;2023-06-22T03:10:50;98624.08;;;19.49;70.82
77823;BME280;67013;49.730;17.292;2023-06-22T03:13:20;98630.83;;;19.49;70.77
77823;BME280;67013;49.730;17.292;2023-06-22T03:15:49;98638.66;;;19.52;70.77
77823;BME280;67013;49.730;17.292;2023-06-22T03:18:19;98640.95;;;19.55;70.66
77823;BME280;67013;49.730;17.292;2023-06-22T03:20:48;98644.27;;;19.60;70.63
77823;BME280;67013;49.730;17.292;2023-06-22T03:23:18;98642.62;;;19.64;70.61
77823;BME280;67013;49.730;17.292;2023-06-22T03:25:48;98642.34;;;19.67;70.52
77823;BME280;67013;49.730;17.292;2023-06-22T03:28:18;98643.60;;;19.70;70.59
77823;BME280;67013;49.730;17.292;2023-06-22T03:30:47;98637.73;;;19.74;70.43
77823;BME280;67013;49.730;17.292;2023-06-22T03:33:17;98629.94;;;19.78;70.25
77823;BME280;67013;49.730;17.292;2023-06-22T03:35:46;98627.13;;;19.79;70.23
77823;BME280;67013;49.730;17.292;2023-06-22T03:38:16;98629.77;;;19.77;70.11
77823;BME280;67013;49.730;17.292;2023-06-22T03:40:46;98635.98;;;19.79;70.02
77823;BME280;67013;49.730;17.292;2023-06-22T03:43:15;98636.18;;;19.85;70.09
77823;BME280;67013;49.730;17.292;2023-06-22T03:45:45;98629.63;;;19.93;69.99
77823;BME280;67013;49.730;17.292;2023-06-22T03:48:14;98633.17;;;20.05;69.80
77823;BME280;67013;49.730;17.292;2023-06-22T03:50:44;98632.14;;;20.17;69.63
77823;BME280;67013;49.730;17.292;2023-06-22T03:53:13;98632.50;;;20.30;69.35
77823;BME280;67013;49.730;17.292;2023-06-22T03:55:49;98627.82;;;20.43;69.17
77823;BME280;67013;49.730;17.292;2023-06-22T03:58:20;98627.39;;;20.54;68.72
77823;BME280;67013;49.730;17.292;2023-06-22T04:00:51;98627.14;;;20.65;68.48
77823;BME280;67013;49.730;17.292;2023-06-22T04:03:21;98623.66;;;20.77;68.29
77823;BME280;67013;49.730;17.292;2023-06-22T04:05:50;98629.30;;;20.89;68.18
77823;BME280;67013;49.730;17.292;2023-06-22T04:08:20;98632.42;;;21.06;67.89
77823;BME280;67013;49.730;17.292;2023-06-22T04:10:49;98641.38;;;21.24;67.49
77823;BME280;67013;49.730;17.292;2023-06-22T04:13:19;98637.98;;;21.41;67.04
77823;BME280;67013;49.730;17.292;2023-06-22T04:15:48;98638.96;;;21.66;66.56
77823;BME280;67013;49.730;17.292;2023-06-22T04:18:18;98636.61;;;22.41;65.47
77823;BME280;67013;49.730;17.292;2023-06-22T04:20:47;98644.87;;;23.55;63.48
77823;BME280;67013;49.730;17.292;2023-06-22T04:23:17;98646.62;;;24.76;61.05
77823;BME280;67013;49.730;17.292;2023-06-22T04:25:49;98652.58;;;26.01;58.46
77823;BME280;67013;49.730;17.292;2023-06-22T04:28:18;98659.08;;;27.23;55.67
77823;BME280;67013;49.730;17.292;2023-06-22T04:30:48;98673.36;;;28.40;53.00
77823;BME280;67013;49.730;17.292;2023-06-22T04:33:19;98671.27;;;29.51;50.46
77823;BME280;67013;49.730;17.292;2023-06-22T04:35:48;98676.63;;;30.60;48.25
77823;BME280;67013;49.730;17.292;2023-06-22T04:38:18;98674.33;;;31.65;46.07
77823;BME280;67013;49.730;17.292;2023-06-22T04:40:49;98672.57;;;32.65;43.82
77823;BME280;67013;49.730;17.292;2023-06-22T04:43:19;98673.38;;;33.58;41.99
77823;BME280;67013;49.730;17.292;2023-06-22T04:45:48;98673.89;;;34.46;40.25
77823;BME280;67013;49.730;17.292;2023-06-22T04:48:20;98675.30;;;35.29;38.39
77823;BME280;67013;49.730;17.292;2023-06-22T04:50:50;98671.97;;;36.05;37.11
77823;BME280;67013;49.730;17.292;2023-06-22T04:53:19;98677.70;;;36.82;35.49
77823;BME280;67013;49.730;17.292;2023-06-22T04:55:49;98680.17;;;37.55;34.30
77823;BME280;67013;49.730;17.292;2023-06-22T04:58:21;98678.21;;;38.24;32.84
77823;BME280;67013;49.730;17.292;2023-06-22T05:00:50;98679.55;;;38.79;32.02
77823;BME280;67013;49.730;17.292;2023-06-22T05:03:20;98683.17;;;39.34;30.82
77823;BME280;67013;49.730;17.292;2023-06-22T05:05:50;98678.71;;;39.89;29.89
77823;BME280;67013;49.730;17.292;2023-06-22T05:08:19;98682.13;;;40.44;29.07
77823;BME280;67013;49.730;17.292;2023-06-22T05:10:48;98686.02;;;40.95;28.27
77823;BME280;67013;49.730;17.292;2023-06-22T05:13:18;98684.73;;;41.40;27.42
77823;BME280;67013;49.730;17.292;2023-06-22T05:15:49;98684.84;;;41.84;26.88
77823;BME280;67013;49.730;17.292;2023-06-22T05:18:19;98684.16;;;42.21;26.09
77823;BME280;67013;49.730;17.292;2023-06-22T05:20:51;98689.70;;;42.54;25.50
77823;BME280;67013;49.730;17.292;2023-06-22T05:23:22;98689.10;;;42.89;24.99
77823;BME280;67013;49.730;17.292;2023-06-22T05:25:52;98687.32;;;43.26;24.68
77823;BME280;67013;49.730;17.292;2023-06-22T05:28:23;98686.92;;;43.70;24.15
77823;BME280;67013;49.730;17.292;2023-06-22T05:30:52;98693.83;;;44.15;23.60
77823;BME280;67013;49.730;17.292;2023-06-22T05:33:22;98699.14;;;44.58;22.93
77823;BME280;67013;49.730;17.292;2023-06-22T05:35:51;98704.54;;;44.96;22.75
77823;BME280;67013;49.730;17.292;2023-06-22T05:38:21;98703.27;;;45.23;21.98
77823;BME280;67013;49.730;17.292;2023-06-22T05:40:50;98701.18;;;45.40;21.44
77823;BME280;67013;49.730;17.292;2023-06-22T05:43:20;98697.98;;;45.54;21.33
77823;BME280;67013;49.730;17.292;2023-06-22T05:45:49;98698.86;;;45.72;21.28
77823;BME280;67013;49.730;17.292;2023-06-22T05:48:19;98703.73;;;45.98;21.24
77823;BME280;67013;49.730;17.292;2023-06-22T05:50:48;98706.98;;;46.24;20.88
77823;BME280;67013;49.730;17.292;2023-06-22T05:53:18;98707.19;;;46.42;20.21
77823;BME280;67013;49.730;17.292;2023-06-22T05:55:48;98706.06;;;46.54;20.14
77823;BME280;67013;49.730;17.292;2023-06-22T05:58:17;98703.14;;;46.68;20.04
77823;BME280;67013;49.730;17.292;2023-06-22T06:00:46;98706.35;;;46.92;20.04
77823;BME280;67013;49.730;17.292;2023-06-22T06:03:16;98705.83;;;47.13;19.58
77823;BME280;67013;49.730;17.292;2023-06-22T06:05:46;98707.66;;;47.26;19.53
77823;BME280;67013;49.730;17.292;2023-06-22T06:08:15;98712.55;;;47.45;19.30
77823;BME280;67013;49.730;17.292;2023-06-22T06:10:45;98712.58;;;47.56;19.18
77823;BME280;67013;49.730;17.292;2023-06-22T06:13:14;98710.71;;;47.61;18.90
77823;BME280;67013;49.730;17.292;2023-06-22T06:15:44;98710.60;;;47.55;19.02
77823;BME280;67013;49.730;17.292;2023-06-22T06:18:13;98703.25;;;47.33;19.16
77823;BME280;67013;49.730;17.292;2023-06-22T06:20:45;98698.80;;;47.16;19.04
77823;BME280;67013;49.730;17.292;2023-06-22T06:23:15;98694.27;;;47.10;19.15
77823;BME280;67013;49.730;17.292;2023-06-22T06:25:44;98690.81;;;47.06;19.24
77823;BME280;67013;49.730;17.292;2023-06-22T06:28:14;98688.19;;;47.15;19.42
77823;BME280;67013;49.730;17.292;2023-06-22T06:30:43;98686.41;;;47.21;19.27
77823;BME280;67013;49.730;17.292;2023-06-22T06:33:15;98682.50;;;47.19;19.12
77823;BME280;67013;49.730;17.292;2023-06-22T06:35:44;98680.80;;;47.15;19.12
77823;BME280;67013;49.730;17.292;2023-06-22T06:38:14;98686.55;;;47.04;18.96
77823;BME280;67013;49.730;17.292;2023-06-22T06:40:43;98691.08;;;46.94;18.94
77823;BME280;67013;49.730;17.292;2023-06-22T06:43:13;98694.36;;;46.78;19.43
77823;BME280;67013;49.730;17.292;2023-06-22T06:45:42;98695.85;;;46.73;19.43
77823;BME280;67013;49.730;17.292;2023-06-22T06:48:12;98696.17;;;46.62;19.65
77823;BME280;67013;49.730;17.292;2023-06-22T06:50:41;98693.84;;;46.59;19.59
77823;BME280;67013;49.730;17.292;2023-06-22T06:53:12;98693.00;;;46.64;19.47
77823;BME280;67013;49.730;17.292;2023-06-22T06:55:41;98701.13;;;46.56;19.71
77823;BME280;67013;49.730;17.292;2023-06-22T06:58:11;98703.77;;;46.23;20.11
77823;BME280;67013;49.730;17.292;2023-06-22T07:00:41;98702.80;;;46.07;20.34
77823;BME280;67013;49.730;17.292;2023-06-22T07:03:11;98699.02;;;46.09;20.32
77823;BME280;67013;49.730;17.292;2023-06-22T07:05:41;98694.16;;;46.05;20.41
77823;BME280;67013;49.730;17.292;2023-06-22T07:08:10;98694.50;;;45.89;20.40
77823;BME280;67013;49.730;17.292;2023-06-22T07:10:39;98693.31;;;45.76;20.60
77823;BME280;67013;49.730;17.292;2023-06-22T07:13:09;98694.02;;;45.69;20.84
77823;BME280;67013;49.730;17.292;2023-06-22T07:15:39;98697.75;;;45.58;20.83
77823;BME280;67013;49.730;17.292;2023-06-22T07:18:08;98698.89;;;45.42;20.85
77823;BME280;67013;49.730;17.292;2023-06-22T07:20:38;98697.46;;;45.15;21.10
77823;BME280;67013;49.730;17.292;2023-06-22T07:23:09;98694.48;;;44.81;21.46
77823;BME280;67013;49.730;17.292;2023-06-22T07:25:38;98694.84;;;44.30;21.72
77823;BME280;67013;49.730;17.292;2023-06-22T07:28:09;98700.05;;;43.84;22.60
77823;BME280;67013;49.730;17.292;2023-06-22T07:30:39;98695.61;;;43.45;23.10
77823;BME280;67013;49.730;17.292;2023-06-22T07:33:09;98690.40;;;43.16;23.41
77823;BME280;67013;49.730;17.292;2023-06-22T07:35:38;98685.98;;;42.94;23.54
77823;BME280;67013;49.730;17.292;2023-06-22T07:38:08;98689.48;;;42.74;24.03
77823;BME280;67013;49.730;17.292;2023-06-22T07:40:37;98691.25;;;42.52;24.31
77823;BME280;67013;49.730;17.292;2023-06-22T07:43:07;98688.56;;;42.30;24.84
77823;BME280;67013;49.730;17.292;2023-06-22T07:45:37;98692.73;;;42.01;25.01
77823;BME280;67013;49.730;17.292;2023-06-22T07:48:08;98691.48;;;41.67;25.20
77823;BME280;67013;49.730;17.292;2023-06-22T07:50:38;98694.77;;;41.38;25.80
77823;BME280;67013;49.730;17.292;2023-06-22T07:53:07;98693.98;;;41.17;26.16
77823;BME280;67013;49.730;17.292;2023-06-22T07:55:37;98689.20;;;40.96;26.16
77823;BME280;67013;49.730;17.292;2023-06-22T07:58:06;98687.85;;;40.80;26.58
77823;BME280;67013;49.730;17.292;2023-06-22T08:00:36;98692.30;;;40.69;26.72
77823;BME280;67013;49.730;17.292;2023-06-22T08:03:05;98693.30;;;40.48;26.78
77823;BME280;67013;49.730;17.292;2023-06-22T08:05:35;98698.59;;;40.31;27.10
77823;BME280;67013;49.730;17.292;2023-06-22T08:08:05;98697.55;;;40.17;27.55
77823;BME280;67013;49.730;17.292;2023-06-22T08:10:34;98695.40;;;40.10;27.91
77823;BME280;67013;49.730;17.292;2023-06-22T08:13:04;98696.77;;;40.07;27.95
77823;BME280;67013;49.730;17.292;2023-06-22T08:15:34;98696.88;;;40.00;27.97
77823;BME280;67013;49.730;17.292;2023-06-22T08:18:03;98697.95;;;39.97;28.13
77823;BME280;67013;49.730;17.292;2023-06-22T08:20:33;98699.78;;;39.95;27.83
77823;BME280;67013;49.730;17.292;2023-06-22T08:23:02;98696.53;;;39.93;28.17
77823;BME280;67013;49.730;17.292;2023-06-22T08:25:34;98696.55;;;39.88;28.50
77823;BME280;67013;49.730;17.292;2023-06-22T08:28:04;98694.56;;;39.68;27.71
77823;BME280;67013;49.730;17.292;2023-06-22T08:30:34;98685.20;;;39.36;27.28
77823;BME280;67013;49.730;17.292;2023-06-22T08:33:03;98683.79;;;38.83;27.64
77823;BME280;67013;49.730;17.292;2023-06-22T08:35:33;98678.68;;;38.35;28.29
77823;BME280;67013;49.730;17.292;2023-06-22T08:38:02;98675.69;;;37.93;29.02
77823;BME280;67013;49.730;17.292;2023-06-22T08:40:32;98677.48;;;37.64;28.99
77823;BME280;67013;49.730;17.292;2023-06-22T08:43:01;98675.92;;;37.06;29.98
77823;BME280;67013;49.730;17.292;2023-06-22T08:45:31;98673.60;;;36.53;30.26
77823;BME280;67013;49.730;17.292;2023-06-22T08:48:00;98670.85;;;36.14;30.82
77823;BME280;67013;49.730;17.292;2023-06-22T08:50:30;98675.48;;;35.79;31.19
77823;BME280;67013;49.730;17.292;2023-06-22T08:52:59;98679.08;;;35.37;31.95
77823;BME280;67013;49.730;17.292;2023-06-22T08:55:29;98677.31;;;35.03;32.57
77823;BME280;67013;49.730;17.292;2023-06-22T08:57:58;98677.17;;;34.90;33.16
77823;BME280;67013;49.730;17.292;2023-06-22T09:00:28;98677.95;;;34.97;33.31
77823;BME280;67013;49.730;17.292;2023-06-22T09:03:00;98676.55;;;34.79;33.35
77823;BME280;67013;49.730;17.292;2023-06-22T09:05:30;98678.14;;;34.52;33.87
77823;BME280;67013;49.730;17.292;2023-06-22T09:08:00;98668.85;;;34.30;34.30
77823;BME280;67013;49.730;17.292;2023-06-22T09:10:29;98662.06;;;34.18;34.86
77823;BME280;67013;49.730;17.292;2023-06-22T09:12:59;98660.15;;;34.09;34.86
77823;BME280;67013;49.730;17.292;2023-06-22T09:15:29;98655.51;;;33.94;35.24
77823;BME280;67013;49.730;17.292;2023-06-22T09:17:59;98653.95;;;33.81;35.31
77823;BME280;67013;49.730;17.292;2023-06-22T09:20:29;98648.20;;;33.66;35.67
77823;BME280;67013;49.730;17.292;2023-06-22T09:22:59;98648.44;;;33.67;35.86
77823;BME280;67013;49.730;17.292;2023-06-22T09:25:29;98643.39;;;33.65;35.97
77823;BME280;67013;49.730;17.292;2023-06-22T09:27:59;98645.52;;;33.59;35.82
77823;BME280;67013;49.730;17.292;2023-06-22T09:30:28;98646.80;;;33.41;36.33
77823;BME280;67013;49.730;17.292;2023-06-22T09:32:57;98648.06;;;33.23;36.43
77823;BME280;67013;49.730;17.292;2023-06-22T09:35:29;98646.51;;;33.08;36.64
77823;BME280;67013;49.730;17.292;2023-06-22T09:37:58;98644.42;;;32.93;36.56
77823;BME280;67013;49.730;17.292;2023-06-22T09:40:28;98639.45;;;32.85;36.70
77823;BME280;67013;49.730;17.292;2023-06-22T09:42:57;98639.54;;;32.81;36.82
77823;BME280;67013;49.730;17.292;2023-06-22T09:45:27;98627.71;;;32.74;36.64
77823;BME280;67013;49.730;17.292;2023-06-22T09:47:56;98628.66;;;32.72;36.85
77823;BME280;67013;49.730;17.292;2023-06-22T09:50:26;98628.95;;;32.80;37.11
77823;BME280;67013;49.730;17.292;2023-06-22T09:52:55;98632.36;;;32.92;37.50
77823;BME280;67013;49.730;17.292;2023-06-22T09:55:25;98629.27;;;33.00;37.22
77823;BME280;67013;49.730;17.292;2023-06-22T09:57:54;98631.75;;;33.04;37.42
77823;BME280;67013;49.730;17.292;2023-06-22T10:00:24;98624.70;;;33.18;37.65
77823;BME280;67013;49.730;17.292;2023-06-22T10:02:54;98629.89;;;33.34;36.47
77823;BME280;67013;49.730;17.292;2023-06-22T10:05:24;98625.81;;;33.21;36.39
77823;BME280;67013;49.730;17.292;2023-06-22T10:07:54;98622.27;;;33.08;37.00
77823;BME280;67013;49.730;17.292;2023-06-22T10:10:23;98615.78;;;33.02;37.57
77823;BME280;67013;49.730;17.292;2023-06-22T10:13:02;98613.55;;;33.09;37.42
77823;BME280;67013;49.730;17.292;2023-06-22T10:15:31;98609.83;;;33.19;37.00
77823;BME280;67013;49.730;17.292;2023-06-22T10:18:01;98609.94;;;33.26;36.96
77823;BME280;67013;49.730;17.292;2023-06-22T10:20:30;98612.36;;;33.30;36.79
77823;BME280;67013;49.730;17.292;2023-06-22T10:23:00;98617.72;;;33.22;37.02
77823;BME280;67013;49.730;17.292;2023-06-22T10:25:30;98617.55;;;33.09;37.17
77823;BME280;67013;49.730;17.292;2023-06-22T10:27:59;98611.19;;;32.99;37.39
77823;BME280;67013;49.730;17.292;2023-06-22T10:30:29;98612.50;;;32.87;37.69
77823;BME280;67013;49.730;17.292;2023-06-22T10:32:58;98613.95;;;32.95;38.26
77823;BME280;67013;49.730;17.292;2023-06-22T10:35:28;98615.30;;;33.11;37.84
77823;BME280;67013;49.730;17.292;2023-06-22T10:37:57;98615.98;;;33.14;37.16
77823;BME280;67013;49.730;17.292;2023-06-22T10:40:27;98611.48;;;33.13;37.62
77823;BME280;67013;49.730;17.292;2023-06-22T10:42:56;98610.60;;;33.16;37.63
77823;BME280;67013;49.730;17.292;2023-06-22T10:45:26;98609.15;;;33.13;37.60
77823;BME280;67013;49.730;17.292;2023-06-22T10:47:56;98607.31;;;33.13;37.50
77823;BME280;67013;49.730;17.292;2023-06-22T10:50:26;98603.25;;;33.11;37.33
77823;BME280;67013;49.730;17.292;2023-06-22T10:52:55;98604.17;;;33.07;37.62
77823;BME280;67013;49.730;17.292;2023-06-22T10:55:25;98598.80;;;33.11;37.82
77823;BME280;67013;49.730;17.292;2023-06-22T10:57:54;98596.27;;;33.12;37.71
77823;BME280;67013;49.730;17.292;2023-06-22T11:00:23;98594.97;;;33.16;38.12
77823;BME280;67013;49.730;17.292;2023-06-22T11:02:53;98594.63;;;33.22;37.92
77823;BME280;67013;49.730;17.292;2023-06-22T11:05:23;98587.71;;;33.36;37.91
77823;BME280;67013;49.730;17.292;2023-06-22T11:07:52;98583.79;;;33.52;37.26
77823;BME280;67013;49.730;17.292;2023-06-22T11:10:21;98581.60;;;33.67;37.12
77823;BME280;67013;49.730;17.292;2023-06-22T11:12:51;98581.77;;;33.76;36.03
77823;BME280;67013;49.730;17.292;2023-06-22T11:15:21;98574.05;;;33.70;35.73
77823;BME280;67013;49.730;17.292;2023-06-22T11:17:50;98572.94;;;33.65;35.92
77823;BME280;67013;49.730;17.292;2023-06-22T11:20:20;98567.13;;;33.63;36.23
77823;BME280;67013;49.730;17.292;2023-06-22T11:22:49;98564.52;;;33.69;36.37
77823;BME280;67013;49.730;17.292;2023-06-22T11:25:19;98558.05;;;33.63;35.60
77823;BME280;67013;49.730;17.292;2023-06-22T11:27:48;98556.44;;;33.61;35.89
77823;BME280;67013;49.730;17.292;2023-06-22T11:30:19;98554.80;;;33.71;36.09
77823;BME280;67013;49.730;17.292;2023-06-22T11:32:48;98556.45;;;33.76;35.95
77823;BME280;67013;49.730;17.292;2023-06-22T11:35:18;98556.27;;;33.65;34.88
77823;BME280;67013;49.730;17.292;2023-06-22T11:37:47;98554.02;;;33.51;35.13
77823;BME280;67013;49.730;17.292;2023-06-22T11:40:17;98550.75;;;33.48;35.75
77823;BME280;67013;49.730;17.292;2023-06-22T11:42:46;98555.54;;;33.46;36.01
77823;BME280;67013;49.730;17.292;2023-06-22T11:45:16;98554.17;;;33.35;36.32
77823;BME280;67013;49.730;17.292;2023-06-22T11:47:46;98554.40;;;33.30;36.51
77823;BME280;67013;49.730;17.292;2023-06-22T11:50:15;98553.08;;;33.37;36.47
77823;BME280;67013;49.730;17.292;2023-06-22T11:52:45;98549.30;;;33.28;36.10
77823;BME280;67013;49.730;17.292;2023-06-22T11:55:15;98541.23;;;33.16;36.31
77823;BME280;67013;49.730;17.292;2023-06-22T11:57:55;98535.91;;;33.14;36.74
77823;BME280;67013;49.730;17.292;2023-06-22T12:00:27;98532.08;;;33.09;36.68
77823;BME280;67013;49.730;17.292;2023-06-22T12:02:56;98529.02;;;33.02;36.73
77823;BME280;67013;49.730;17.292;2023-06-22T12:05:26;98530.25;;;32.98;36.67
77823;BME280;67013;49.730;17.292;2023-06-22T12:07:55;98530.54;;;32.99;36.88
77823;BME280;67013;49.730;17.292;2023-06-22T12:10:26;98527.27;;;32.93;36.57
77823;BME280;67013;49.730;17.292;2023-06-22T12:12:56;98520.33;;;32.72;36.82
77823;BME280;67013;49.730;17.292;2023-06-22T12:15:28;98514.27;;;32.64;36.98
77823;BME280;67013;49.730;17.292;2023-06-22T12:17:57;98509.44;;;32.59;37.32
77823;BME280;67013;49.730;17.292;2023-06-22T12:20:27;98506.83;;;32.58;37.60
77823;BME280;67013;49.730;17.292;2023-06-22T12:22:57;98504.55;;;32.66;37.64
77823;BME280;67013;49.730;17.292;2023-06-22T12:25:26;98502.14;;;32.78;37.43
77823;BME280;67013;49.730;17.292;2023-06-22T12:27:56;98500.19;;;32.89;36.98
77823;BME280;67013;49.730;17.292;2023-06-22T12:30:25;98498.52;;;32.98;36.97
77823;BME280;67013;49.730;17.292;2023-06-22T12:32:54;98493.30;;;32.99;37.11
77823;BME280;67013;49.730;17.292;2023-06-22T12:35:24;98494.41;;;33.01;36.98
77823;BME280;67013;49.730;17.292;2023-06-22T12:37:54;98495.24;;;32.99;36.99
77823;BME280;67013;49.730;17.292;2023-06-22T12:40:25;98494.40;;;32.94;36.69
77823;BME280;67013;49.730;17.292;2023-06-22T12:42:54;98492.90;;;32.81;37.06
77823;BME280;67013;49.730;17.292;2023-06-22T12:45:23;98493.19;;;32.74;37.22
77823;BME280;67013;49.730;17.292;2023-06-22T12:47:57;98496.06;;;32.70;37.83
77823;BME280;67013;49.730;17.292;2023-06-22T12:50:26;98498.77;;;32.70;37.68
77823;BME280;67013;49.730;17.292;2023-06-22T12:52:55;98491.44;;;32.70;37.80
77823;BME280;67013;49.730;17.292;2023-06-22T12:55:25;98490.55;;;32.75;37.45
77823;BME280;67013;49.730;17.292;2023-06-22T12:57:54;98488.53;;;32.74;37.22
77823;BME280;67013;49.730;17.292;2023-06-22T13:00:24;98494.73;;;32.66;37.07
77823;BME280;67013;49.730;17.292;2023-06-22T13:02:53;98491.50;;;32.58;37.35
77823;BME280;67013;49.730;17.292;2023-06-22T13:05:23;98490.44;;;32.56;37.52
77823;BME280;67013;49.730;17.292;2023-06-22T13:07:52;98488.95;;;32.54;37.70